sensor_id;sensor_type;location;lat;lon;timestamp;temperature;humidity
15765;DHT22;7983;50.744;7.086;2022-12-07T00:01:53;6.20;99.90
15765;DHT22;7983;50.744;7.086;2022-12-07T00:04:19;6.30;99.90
15765;DHT22;7983;50.744;7.086;2022-12-07T00:06:46;6.30;99.90
15765;DHT22;7983;50.744;7.086;2022-12-07T00:09:16;6.30;99.90
15765;DHT22;7983;50.744;7.086;2022-12-07T00:11:42;6.30;99.90
15765;DHT22;7983;50.744;7.086;2022-12-07T00:14:11;6.30;99.90
15765;DHT22;7983;50.744;7.086;2022-12-07T00:16:37;6.30;99.90
15765;DHT22;7983;50.744;7.086;2022-12-07T00:19:03;6.30;99.90
15765;DHT22;7983;50.744;7.086;2022-12-07T00:21:33;6.40;99.90
15765;DHT22;7983;50.744;7.086;2022-12-07T00:24:03;6.40;99.90
15765;DHT22;7983;50.744;7.086;2022-12-07T00:26:33;6.40;99.90
15765;DHT22;7983;50.744;7.086;2022-12-07T00:29:04;6.50;99.90
15765;DHT22;7983;50.744;7.086;2022-12-07T00:31:33;6.40;99.90
15765;DHT22;7983;50.744;7.086;2022-12-07T00:34:00;6.40;99.90
15765;DHT22;7983;50.744;7.086;2022-12-07T00:36:27;6.50;99.90
15765;DHT22;7983;50.744;7.086;2022-12-07T00:38:59;6.50;99.90
15765;DHT22;7983;50.744;7.086;2022-12-07T00:41:26;6.50;99.90
15765;DHT22;7983;50.744;7.086;2022-12-07T00:43:53;6.50;99.90
15765;DHT22;7983;50.744;7.086;2022-12-07T00:46:20;6.70;99.90
15765;DHT22;7983;50.744;7.086;2022-12-07T00:48:46;6.50;99.90
15765;DHT22;7983;50.744;7.086;2022-12-07T00:51:13;6.60;99.90
15765;DHT22;7983;50.744;7.086;2022-12-07T00:53:39;6.60;99.90
15765;DHT22;7983;50.744;7.086;2022-12-07T00:56:13;6.60;99.90
15765;DHT22;7983;50.744;7.086;2022-12-07T00:58:39;6.60;99.90
15765;DHT22;7983;50.744;7.086;2022-12-07T01:01:10;6.60;99.90
15765;DHT22;7983;50.744;7.086;2022-12-07T01:03:37;6.70;99.90
15765;DHT22;7983;50.744;7.086;2022-12-07T01:06:07;6.70;99.90
15765;DHT22;7983;50.744;7.086;2022-12-07T01:08:33;6.70;99.90
15765;DHT22;7983;50.744;7.086;2022-12-07T01:11:04;6.70;99.90
15765;DHT22;7983;50.744;7.086;2022-12-07T01:13:33;6.70;99.90
15765;DHT22;7983;50.744;7.086;2022-12-07T01:16:01;6.70;99.90
15765;DHT22;7983;50.744;7.086;2022-12-07T01:18:30;6.70;99.90
15765;DHT22;7983;50.744;7.086;2022-12-07T01:21:00;6.70;99.90
15765;DHT22;7983;50.744;7.086;2022-12-07T01:23:27;6.70;99.90
15765;DHT22;7983;50.744;7.086;2022-12-07T01:25:57;6.70;99.90
15765;DHT22;7983;50.744;7.086;2022-12-07T01:28:24;6.80;99.90
15765;DHT22;7983;50.744;7.086;2022-12-07T01:31:00;6.80;99.90
15765;DHT22;7983;50.744;7.086;2022-12-07T01:33:34;6.80;99.90
15765;DHT22;7983;50.744;7.086;2022-12-07T01:36:08;6.80;99.90
15765;DHT22;7983;50.744;7.086;2022-12-07T01:38:34;6.80;99.90
15765;DHT22;7983;50.744;7.086;2022-12-07T01:41:01;6.90;99.90
15765;DHT22;7983;50.744;7.086;2022-12-07T01:43:28;6.90;99.90
15765;DHT22;7983;50.744;7.086;2022-12-07T01:45:55;6.90;99.90
15765;DHT22;7983;50.744;7.086;2022-12-07T01:48:27;6.90;99.90
15765;DHT22;7983;50.744;7.086;2022-12-07T01:50:54;6.90;99.90
15765;DHT22;7983;50.744;7.086;2022-12-07T01:53:25;6.80;99.90
15765;DHT22;7983;50.744;7.086;2022-12-07T01:55:52;6.90;99.90
15765;DHT22;7983;50.744;7.086;2022-12-07T01:58:18;6.90;99.90
15765;DHT22;7983;50.744;7.086;2022-12-07T02:00:50;6.90;99.90
15765;DHT22;7983;50.744;7.086;2022-12-07T02:03:36;6.90;99.90
15765;DHT22;7983;50.744;7.086;2022-12-07T02:06:03;6.90;99.90
15765;DHT22;7983;50.744;7.086;2022-12-07T02:08:29;6.90;99.90
15765;DHT22;7983;50.744;7.086;2022-12-07T02:11:00;6.90;99.90
15765;DHT22;7983;50.744;7.086;2022-12-07T02:13:29;6.90;99.90
15765;DHT22;7983;50.744;7.086;2022-12-07T02:16:27;6.90;99.90
15765;DHT22;7983;50.744;7.086;2022-12-07T02:19:17;6.90;99.90
15765;DHT22;7983;50.744;7.086;2022-12-07T02:27:33;6.90;99.90
15765;DHT22;7983;50.744;7.086;2022-12-07T02:30:15;6.90;99.90
15765;DHT22;7983;50.744;7.086;2022-12-07T02:35:35;6.90;99.90
15765;DHT22;7983;50.744;7.086;2022-12-07T02:38:14;6.90;99.90
15765;DHT22;7983;50.744;7.086;2022-12-07T02:40:47;6.90;99.90
15765;DHT22;7983;50.744;7.086;2022-12-07T02:43:28;7.00;99.90
15765;DHT22;7983;50.744;7.086;2022-12-07T02:46:03;6.90;99.90
15765;DHT22;7983;50.744;7.086;2022-12-07T02:48:33;6.90;99.90
15765;DHT22;7983;50.744;7.086;2022-12-07T02:50:59;6.90;99.90
15765;DHT22;7983;50.744;7.086;2022-12-07T02:53:41;6.90;99.90
15765;DHT22;7983;50.744;7.086;2022-12-07T03:07:54;7.00;99.90
15765;DHT22;7983;50.744;7.086;2022-12-07T03:15:51;6.90;99.90
15765;DHT22;7983;50.744;7.086;2022-12-07T03:18:23;6.90;99.90
15765;DHT22;7983;50.744;7.086;2022-12-07T03:20:56;6.90;99.90
15765;DHT22;7983;50.744;7.086;2022-12-07T03:23:25;6.90;99.90
15765;DHT22;7983;50.744;7.086;2022-12-07T03:25:57;6.90;99.90
15765;DHT22;7983;50.744;7.086;2022-12-07T03:28:24;6.90;99.90
15765;DHT22;7983;50.744;7.086;2022-12-07T03:31:37;6.90;99.90
15765;DHT22;7983;50.744;7.086;2022-12-07T03:36:54;6.90;99.90
15765;DHT22;7983;50.744;7.086;2022-12-07T03:41:49;6.90;99.90
15765;DHT22;7983;50.744;7.086;2022-12-07T03:44:15;6.90;99.90
15765;DHT22;7983;50.744;7.086;2022-12-07T03:46:48;6.90;99.90
15765;DHT22;7983;50.744;7.086;2022-12-07T03:52:01;6.80;99.90
15765;DHT22;7983;50.744;7.086;2022-12-07T03:57:01;6.80;99.90
15765;DHT22;7983;50.744;7.086;2022-12-07T03:59:30;6.80;99.90
15765;DHT22;7983;50.744;7.086;2022-12-07T04:01:59;6.80;99.90
15765;DHT22;7983;50.744;7.086;2022-12-07T04:04:31;6.80;99.90
15765;DHT22;7983;50.744;7.086;2022-12-07T04:06:59;6.80;99.90
15765;DHT22;7983;50.744;7.086;2022-12-07T04:09:25;6.80;99.90
15765;DHT22;7983;50.744;7.086;2022-12-07T04:11:51;6.80;99.90
15765;DHT22;7983;50.744;7.086;2022-12-07T04:14:17;6.80;99.90
15765;DHT22;7983;50.744;7.086;2022-12-07T04:16:50;6.80;99.90
15765;DHT22;7983;50.744;7.086;2022-12-07T04:19:17;6.80;99.90
15765;DHT22;7983;50.744;7.086;2022-12-07T04:21:43;6.80;99.90
15765;DHT22;7983;50.744;7.086;2022-12-07T04:24:09;6.80;99.90
15765;DHT22;7983;50.744;7.086;2022-12-07T04:26:35;6.70;99.90
15765;DHT22;7983;50.744;7.086;2022-12-07T04:29:00;6.80;99.90
15765;DHT22;7983;50.744;7.086;2022-12-07T04:31:28;6.70;99.90
15765;DHT22;7983;50.744;7.086;2022-12-07T04:33:54;6.90;99.90
15765;DHT22;7983;50.744;7.086;2022-12-07T04:36:19;6.70;99.90
15765;DHT22;7983;50.744;7.086;2022-12-07T04:38:46;6.70;99.90
15765;DHT22;7983;50.744;7.086;2022-12-07T04:41:12;6.80;99.90
15765;DHT22;7983;50.744;7.086;2022-12-07T04:43:38;6.70;99.90
15765;DHT22;7983;50.744;7.086;2022-12-07T04:46:03;6.70;99.90
15765;DHT22;7983;50.744;7.086;2022-12-07T04:48:32;6.70;99.90
15765;DHT22;7983;50.744;7.086;2022-12-07T04:51:01;6.70;99.90
15765;DHT22;7983;50.744;7.086;2022-12-07T04:53:30;6.70;99.90
15765;DHT22;7983;50.744;7.086;2022-12-07T04:55:57;6.70;99.90
15765;DHT22;7983;50.744;7.086;2022-12-07T04:58:26;6.80;99.90
15765;DHT22;7983;50.744;7.086;2022-12-07T05:00:54;6.70;99.90
15765;DHT22;7983;50.744;7.086;2022-12-07T05:03:23;6.70;99.90
15765;DHT22;7983;50.744;7.086;2022-12-07T05:05:48;6.70;99.90
15765;DHT22;7983;50.744;7.086;2022-12-07T05:08:16;6.70;99.90
15765;DHT22;7983;50.744;7.086;2022-12-07T05:10:42;6.70;99.90
15765;DHT22;7983;50.744;7.086;2022-12-07T05:13:07;6.70;99.90
15765;DHT22;7983;50.744;7.086;2022-12-07T05:15:33;6.70;99.90
15765;DHT22;7983;50.744;7.086;2022-12-07T05:18:04;6.80;99.90
15765;DHT22;7983;50.744;7.086;2022-12-07T05:20:32;6.60;99.90
15765;DHT22;7983;50.744;7.086;2022-12-07T05:22:57;6.70;99.90
15765;DHT22;7983;50.744;7.086;2022-12-07T05:25:24;6.60;99.90
15765;DHT22;7983;50.744;7.086;2022-12-07T05:27:49;6.60;99.90
15765;DHT22;7983;50.744;7.086;2022-12-07T05:30:15;6.60;99.90
15765;DHT22;7983;50.744;7.086;2022-12-07T05:32:44;6.60;99.90
15765;DHT22;7983;50.744;7.086;2022-12-07T05:35:09;6.50;99.90
15765;DHT22;7983;50.744;7.086;2022-12-07T05:37:35;6.60;99.90
15765;DHT22;7983;50.744;7.086;2022-12-07T05:40:01;6.60;99.90
15765;DHT22;7983;50.744;7.086;2022-12-07T05:42:29;6.60;99.90
15765;DHT22;7983;50.744;7.086;2022-12-07T05:44:57;6.70;99.90
15765;DHT22;7983;50.744;7.086;2022-12-07T05:47:22;6.70;99.90
15765;DHT22;7983;50.744;7.086;2022-12-07T05:49:48;6.60;99.90
15765;DHT22;7983;50.744;7.086;2022-12-07T05:52:57;6.70;99.90
15765;DHT22;7983;50.744;7.086;2022-12-07T05:55:23;6.70;99.90
15765;DHT22;7983;50.744;7.086;2022-12-07T05:57:49;6.70;99.90
15765;DHT22;7983;50.744;7.086;2022-12-07T06:00:33;6.70;99.90
15765;DHT22;7983;50.744;7.086;2022-12-07T06:02:59;6.70;99.90
15765;DHT22;7983;50.744;7.086;2022-12-07T06:05:26;6.70;99.90
15765;DHT22;7983;50.744;7.086;2022-12-07T06:07:52;6.70;99.90
15765;DHT22;7983;50.744;7.086;2022-12-07T06:10:18;6.70;99.90
15765;DHT22;7983;50.744;7.086;2022-12-07T06:12:43;6.70;99.90
15765;DHT22;7983;50.744;7.086;2022-12-07T06:15:12;6.60;99.90
15765;DHT22;7983;50.744;7.086;2022-12-07T06:17:38;6.60;99.90
15765;DHT22;7983;50.744;7.086;2022-12-07T06:20:07;6.70;99.90
15765;DHT22;7983;50.744;7.086;2022-12-07T06:22:35;6.70;99.90
15765;DHT22;7983;50.744;7.086;2022-12-07T06:25:03;6.70;99.90
15765;DHT22;7983;50.744;7.086;2022-12-07T06:27:29;6.70;99.90
15765;DHT22;7983;50.744;7.086;2022-12-07T06:29:55;6.70;99.90
15765;DHT22;7983;50.744;7.086;2022-12-07T06:32:20;6.70;99.90
15765;DHT22;7983;50.744;7.086;2022-12-07T06:34:48;6.70;99.90
15765;DHT22;7983;50.744;7.086;2022-12-07T06:37:14;6.70;99.90
15765;DHT22;7983;50.744;7.086;2022-12-07T06:39:39;6.70;99.90
15765;DHT22;7983;50.744;7.086;2022-12-07T06:42:12;6.70;99.90
15765;DHT22;7983;50.744;7.086;2022-12-07T06:44:38;6.70;99.90
15765;DHT22;7983;50.744;7.086;2022-12-07T06:47:03;6.60;99.90
15765;DHT22;7983;50.744;7.086;2022-12-07T06:49:29;6.60;99.90
15765;DHT22;7983;50.744;7.086;2022-12-07T06:51:57;6.50;99.90
15765;DHT22;7983;50.744;7.086;2022-12-07T06:54:23;6.50;99.90
15765;DHT22;7983;50.744;7.086;2022-12-07T06:56:49;6.40;99.90
15765;DHT22;7983;50.744;7.086;2022-12-07T06:59:14;6.40;99.90
15765;DHT22;7983;50.744;7.086;2022-12-07T07:01:40;6.40;99.90
15765;DHT22;7983;50.744;7.086;2022-12-07T07:04:06;6.40;99.90
15765;DHT22;7983;50.744;7.086;2022-12-07T07:06:31;6.30;99.90
15765;DHT22;7983;50.744;7.086;2022-12-07T07:08:57;6.30;99.90
15765;DHT22;7983;50.744;7.086;2022-12-07T07:11:23;6.30;99.90
15765;DHT22;7983;50.744;7.086;2022-12-07T07:13:48;6.30;99.90
15765;DHT22;7983;50.744;7.086;2022-12-07T07:16:16;6.40;99.90
15765;DHT22;7983;50.744;7.086;2022-12-07T07:18:48;6.40;99.90
15765;DHT22;7983;50.744;7.086;2022-12-07T07:21:14;6.40;99.90
15765;DHT22;7983;50.744;7.086;2022-12-07T07:23:39;6.40;99.90
15765;DHT22;7983;50.744;7.086;2022-12-07T07:26:07;6.40;99.90
15765;DHT22;7983;50.744;7.086;2022-12-07T07:28:35;6.40;99.90
15765;DHT22;7983;50.744;7.086;2022-12-07T07:31:01;6.40;99.90
15765;DHT22;7983;50.744;7.086;2022-12-07T07:33:26;6.40;99.90
15765;DHT22;7983;50.744;7.086;2022-12-07T07:38:59;6.40;99.90
15765;DHT22;7983;50.744;7.086;2022-12-07T07:41:25;6.40;99.90
15765;DHT22;7983;50.744;7.086;2022-12-07T07:43:53;6.40;99.90
15765;DHT22;7983;50.744;7.086;2022-12-07T07:46:24;6.40;99.90
15765;DHT22;7983;50.744;7.086;2022-12-07T07:48:50;6.50;99.90
15765;DHT22;7983;50.744;7.086;2022-12-07T07:51:27;6.50;99.90
15765;DHT22;7983;50.744;7.086;2022-12-07T07:53:53;6.50;99.90
15765;DHT22;7983;50.744;7.086;2022-12-07T07:56:20;6.80;99.90
15765;DHT22;7983;50.744;7.086;2022-12-07T07:58:45;6.60;99.90
15765;DHT22;7983;50.744;7.086;2022-12-07T08:01:11;6.60;99.90
15765;DHT22;7983;50.744;7.086;2022-12-07T08:03:40;6.80;99.90
15765;DHT22;7983;50.744;7.086;2022-12-07T08:06:06;6.70;99.90
15765;DHT22;7983;50.744;7.086;2022-12-07T08:08:32;6.70;99.90
15765;DHT22;7983;50.744;7.086;2022-12-07T08:11:00;6.70;99.90
15765;DHT22;7983;50.744;7.086;2022-12-07T08:13:30;6.70;99.90
15765;DHT22;7983;50.744;7.086;2022-12-07T08:15:55;6.70;99.90
15765;DHT22;7983;50.744;7.086;2022-12-07T08:18:21;6.80;99.90
15765;DHT22;7983;50.744;7.086;2022-12-07T08:20:50;6.70;99.90
15765;DHT22;7983;50.744;7.086;2022-12-07T08:23:21;6.70;99.90
15765;DHT22;7983;50.744;7.086;2022-12-07T08:25:55;6.60;99.90
15765;DHT22;7983;50.744;7.086;2022-12-07T08:28:20;6.60;99.90
15765;DHT22;7983;50.744;7.086;2022-12-07T08:30:46;6.60;99.90
15765;DHT22;7983;50.744;7.086;2022-12-07T08:33:14;6.60;99.90
15765;DHT22;7983;50.744;7.086;2022-12-07T08:35:45;6.60;99.90
15765;DHT22;7983;50.744;7.086;2022-12-07T08:38:11;6.60;99.90
15765;DHT22;7983;50.744;7.086;2022-12-07T08:40:39;6.60;99.90
15765;DHT22;7983;50.744;7.086;2022-12-07T08:43:05;6.70;99.90
15765;DHT22;7983;50.744;7.086;2022-12-07T08:45:31;6.70;99.90
15765;DHT22;7983;50.744;7.086;2022-12-07T08:48:11;6.80;99.90
15765;DHT22;7983;50.744;7.086;2022-12-07T08:50:44;7.00;99.90
15765;DHT22;7983;50.744;7.086;2022-12-07T08:53:13;6.90;99.90
15765;DHT22;7983;50.744;7.086;2022-12-07T08:56:04;6.90;99.90
15765;DHT22;7983;50.744;7.086;2022-12-07T08:58:34;6.90;99.90
15765;DHT22;7983;50.744;7.086;2022-12-07T09:03:57;6.90;99.90
15765;DHT22;7983;50.744;7.086;2022-12-07T09:06:28;6.90;99.90
15765;DHT22;7983;50.744;7.086;2022-12-07T09:08:57;7.00;99.90
15765;DHT22;7983;50.744;7.086;2022-12-07T09:11:23;6.90;99.90
15765;DHT22;7983;50.744;7.086;2022-12-07T09:13:49;6.90;99.90
15765;DHT22;7983;50.744;7.086;2022-12-07T09:16:14;6.90;99.90
15765;DHT22;7983;50.744;7.086;2022-12-07T09:19:03;6.90;99.90
15765;DHT22;7983;50.744;7.086;2022-12-07T09:21:28;6.90;99.90
15765;DHT22;7983;50.744;7.086;2022-12-07T09:23:56;6.90;99.90
15765;DHT22;7983;50.744;7.086;2022-12-07T09:26:25;7.00;99.90
15765;DHT22;7983;50.744;7.086;2022-12-07T09:28:51;7.00;99.90
15765;DHT22;7983;50.744;7.086;2022-12-07T09:31:23;7.10;99.90
15765;DHT22;7983;50.744;7.086;2022-12-07T09:33:56;7.50;99.90
15765;DHT22;7983;50.744;7.086;2022-12-07T09:36:28;7.20;99.90
15765;DHT22;7983;50.744;7.086;2022-12-07T09:38:54;7.20;99.90
15765;DHT22;7983;50.744;7.086;2022-12-07T09:41:21;7.30;99.90
15765;DHT22;7983;50.744;7.086;2022-12-07T09:44:50;7.30;99.90
15765;DHT22;7983;50.744;7.086;2022-12-07T09:47:02;7.30;99.90
15765;DHT22;7983;50.744;7.086;2022-12-07T09:49:51;7.30;99.90
15765;DHT22;7983;50.744;7.086;2022-12-07T09:52:33;7.30;99.90
15765;DHT22;7983;50.744;7.086;2022-12-07T09:54:59;7.50;99.90
15765;DHT22;7983;50.744;7.086;2022-12-07T09:57:31;7.40;99.90
15765;DHT22;7983;50.744;7.086;2022-12-07T10:00:01;7.40;99.90
15765;DHT22;7983;50.744;7.086;2022-12-07T10:05:40;7.50;99.90
15765;DHT22;7983;50.744;7.086;2022-12-07T10:08:13;7.60;99.90
15765;DHT22;7983;50.744;7.086;2022-12-07T10:10:39;8.00;99.90
15765;DHT22;7983;50.744;7.086;2022-12-07T10:13:33;7.60;99.90
15765;DHT22;7983;50.744;7.086;2022-12-07T10:15:57;7.60;99.90
15765;DHT22;7983;50.744;7.086;2022-12-07T10:18:47;7.60;99.90
15765;DHT22;7983;50.744;7.086;2022-12-07T10:21:28;7.60;99.90
15765;DHT22;7983;50.744;7.086;2022-12-07T10:24:04;7.70;99.90
15765;DHT22;7983;50.744;7.086;2022-12-07T10:26:50;7.70;99.90
15765;DHT22;7983;50.744;7.086;2022-12-07T10:29:38;7.70;99.90
15765;DHT22;7983;50.744;7.086;2022-12-07T10:32:31;8.00;99.90
15765;DHT22;7983;50.744;7.086;2022-12-07T10:37:55;7.90;99.90
15765;DHT22;7983;50.744;7.086;2022-12-07T10:43:57;8.00;99.90
15765;DHT22;7983;50.744;7.086;2022-12-07T11:17:21;8.20;99.90
15765;DHT22;7983;50.744;7.086;2022-12-07T11:26:55;8.10;99.90
15765;DHT22;7983;50.744;7.086;2022-12-07T11:38:26;8.20;99.90
15765;DHT22;7983;50.744;7.086;2022-12-07T11:41:01;8.20;99.90
15765;DHT22;7983;50.744;7.086;2022-12-07T11:43:46;8.30;99.90
15765;DHT22;7983;50.744;7.086;2022-12-07T11:46:18;8.40;99.90
15765;DHT22;7983;50.744;7.086;2022-12-07T11:49:20;8.50;99.90
15765;DHT22;7983;50.744;7.086;2022-12-07T11:51:51;8.70;99.90
15765;DHT22;7983;50.744;7.086;2022-12-07T11:54:29;8.90;99.90
15765;DHT22;7983;50.744;7.086;2022-12-07T11:57:22;9.00;99.90
15765;DHT22;7983;50.744;7.086;2022-12-07T12:00:03;9.10;99.90
15765;DHT22;7983;50.744;7.086;2022-12-07T12:02:58;9.20;99.90
15765;DHT22;7983;50.744;7.086;2022-12-07T12:05:40;9.10;99.90
15765;DHT22;7983;50.744;7.086;2022-12-07T12:10:55;9.10;99.90
15765;DHT22;7983;50.744;7.086;2022-12-07T12:19:10;9.10;99.90
15765;DHT22;7983;50.744;7.086;2022-12-07T12:21:41;9.10;99.90
15765;DHT22;7983;50.744;7.086;2022-12-07T12:24:40;9.00;99.90
15765;DHT22;7983;50.744;7.086;2022-12-07T12:27:14;9.00;99.90
15765;DHT22;7983;50.744;7.086;2022-12-07T12:29:42;9.00;99.90
15765;DHT22;7983;50.744;7.086;2022-12-07T12:32:23;9.00;99.90
15765;DHT22;7983;50.744;7.086;2022-12-07T12:35:22;8.90;99.90
15765;DHT22;7983;50.744;7.086;2022-12-07T12:37:55;8.90;99.90
15765;DHT22;7983;50.744;7.086;2022-12-07T12:42:58;8.80;99.90
15765;DHT22;7983;50.744;7.086;2022-12-07T12:45:32;8.70;99.90
15765;DHT22;7983;50.744;7.086;2022-12-07T12:48:44;8.70;99.90
15765;DHT22;7983;50.744;7.086;2022-12-07T12:51:38;8.70;99.90
15765;DHT22;7983;50.744;7.086;2022-12-07T12:56:55;8.70;99.90
15765;DHT22;7983;50.744;7.086;2022-12-07T13:02:16;8.70;99.90
15765;DHT22;7983;50.744;7.086;2022-12-07T13:05:33;8.70;99.90
15765;DHT22;7983;50.744;7.086;2022-12-07T13:10:44;8.70;99.90
15765;DHT22;7983;50.744;7.086;2022-12-07T13:15:49;8.60;99.90
15765;DHT22;7983;50.744;7.086;2022-12-07T13:37:26;8.20;99.90
15765;DHT22;7983;50.744;7.086;2022-12-07T13:40:00;8.20;99.90
15765;DHT22;7983;50.744;7.086;2022-12-07T13:43:19;8.10;99.90
15765;DHT22;7983;50.744;7.086;2022-12-07T13:45:44;8.20;99.90
15765;DHT22;7983;50.744;7.086;2022-12-07T13:48:50;8.20;99.90
15765;DHT22;7983;50.744;7.086;2022-12-07T13:51:32;8.10;99.90
15765;DHT22;7983;50.744;7.086;2022-12-07T13:54:06;8.10;99.90
15765;DHT22;7983;50.744;7.086;2022-12-07T13:56:37;8.00;99.90
15765;DHT22;7983;50.744;7.086;2022-12-07T13:59:36;8.10;99.90
15765;DHT22;7983;50.744;7.086;2022-12-07T14:02:32;8.00;99.90
15765;DHT22;7983;50.744;7.086;2022-12-07T14:05:14;8.00;99.90
15765;DHT22;7983;50.744;7.086;2022-12-07T14:07:58;8.00;99.90
15765;DHT22;7983;50.744;7.086;2022-12-07T14:13:01;8.00;99.90
15765;DHT22;7983;50.744;7.086;2022-12-07T14:23:38;7.90;99.90
15765;DHT22;7983;50.744;7.086;2022-12-07T14:26:29;7.90;99.90
15765;DHT22;7983;50.744;7.086;2022-12-07T14:31:54;7.80;99.90
15765;DHT22;7983;50.744;7.086;2022-12-07T14:34:21;7.80;99.90
15765;DHT22;7983;50.744;7.086;2022-12-07T14:36:47;7.70;99.90
15765;DHT22;7983;50.744;7.086;2022-12-07T14:39:15;7.60;99.90
15765;DHT22;7983;50.744;7.086;2022-12-07T14:41:40;7.60;99.90
15765;DHT22;7983;50.744;7.086;2022-12-07T14:44:22;7.60;99.90
15765;DHT22;7983;50.744;7.086;2022-12-07T14:46:54;7.50;99.90
15765;DHT22;7983;50.744;7.086;2022-12-07T14:49:20;7.50;99.90
15765;DHT22;7983;50.744;7.086;2022-12-07T14:51:48;7.50;99.90
15765;DHT22;7983;50.744;7.086;2022-12-07T14:54:21;7.50;99.90
15765;DHT22;7983;50.744;7.086;2022-12-07T14:56:50;7.50;99.90
15765;DHT22;7983;50.744;7.086;2022-12-07T14:59:17;7.50;99.90
15765;DHT22;7983;50.744;7.086;2022-12-07T15:01:46;7.50;99.90
15765;DHT22;7983;50.744;7.086;2022-12-07T15:04:14;7.50;99.90
15765;DHT22;7983;50.744;7.086;2022-12-07T15:09:39;7.50;99.90
15765;DHT22;7983;50.744;7.086;2022-12-07T15:12:05;7.50;99.90
15765;DHT22;7983;50.744;7.086;2022-12-07T15:14:53;7.50;99.90
15765;DHT22;7983;50.744;7.086;2022-12-07T15:17:18;7.50;99.90
15765;DHT22;7983;50.744;7.086;2022-12-07T15:19:46;7.40;99.90
15765;DHT22;7983;50.744;7.086;2022-12-07T15:22:27;7.40;99.90
15765;DHT22;7983;50.744;7.086;2022-12-07T15:24:55;7.40;99.90
15765;DHT22;7983;50.744;7.086;2022-12-07T15:27:23;7.40;99.90
15765;DHT22;7983;50.744;7.086;2022-12-07T15:29:49;7.40;99.90
15765;DHT22;7983;50.744;7.086;2022-12-07T15:32:19;7.40;99.90
15765;DHT22;7983;50.744;7.086;2022-12-07T15:34:48;7.30;99.90
15765;DHT22;7983;50.744;7.086;2022-12-07T15:37:15;7.40;99.90
15765;DHT22;7983;50.744;7.086;2022-12-07T15:39:44;7.30;99.90
15765;DHT22;7983;50.744;7.086;2022-12-07T15:42:09;7.50;99.90
15765;DHT22;7983;50.744;7.086;2022-12-07T15:44:47;7.30;99.90
15765;DHT22;7983;50.744;7.086;2022-12-07T15:47:43;7.30;99.90
15765;DHT22;7983;50.744;7.086;2022-12-07T15:50:15;7.40;99.90
15765;DHT22;7983;50.744;7.086;2022-12-07T15:52:47;7.40;99.90
15765;DHT22;7983;50.744;7.086;2022-12-07T15:55:13;7.40;99.90
15765;DHT22;7983;50.744;7.086;2022-12-07T15:57:39;7.40;99.90
15765;DHT22;7983;50.744;7.086;2022-12-07T16:00:06;7.40;99.90
15765;DHT22;7983;50.744;7.086;2022-12-07T16:02:36;7.40;99.90
15765;DHT22;7983;50.744;7.086;2022-12-07T16:05:04;7.40;99.90
15765;DHT22;7983;50.744;7.086;2022-12-07T16:07:32;7.40;99.90
15765;DHT22;7983;50.744;7.086;2022-12-07T16:10:00;7.40;99.90
15765;DHT22;7983;50.744;7.086;2022-12-07T16:12:26;7.40;99.90
15765;DHT22;7983;50.744;7.086;2022-12-07T16:14:53;7.40;99.90
15765;DHT22;7983;50.744;7.086;2022-12-07T16:17:25;7.40;99.90
15765;DHT22;7983;50.744;7.086;2022-12-07T16:19:51;7.40;99.90
15765;DHT22;7983;50.744;7.086;2022-12-07T16:22:17;7.40;99.90
15765;DHT22;7983;50.744;7.086;2022-12-07T16:24:54;7.40;99.90
15765;DHT22;7983;50.744;7.086;2022-12-07T16:27:19;7.40;99.90
15765;DHT22;7983;50.744;7.086;2022-12-07T16:29:45;7.40;99.90
15765;DHT22;7983;50.744;7.086;2022-12-07T16:32:13;7.40;99.90
15765;DHT22;7983;50.744;7.086;2022-12-07T16:34:39;7.40;99.90
15765;DHT22;7983;50.744;7.086;2022-12-07T16:37:07;7.40;99.90
15765;DHT22;7983;50.744;7.086;2022-12-07T16:39:33;7.40;99.90
15765;DHT22;7983;50.744;7.086;2022-12-07T16:41:59;7.40;99.90
15765;DHT22;7983;50.744;7.086;2022-12-07T16:44:27;7.40;99.90
15765;DHT22;7983;50.744;7.086;2022-12-07T16:46:53;7.30;99.90
15765;DHT22;7983;50.744;7.086;2022-12-07T16:49:19;7.40;99.90
15765;DHT22;7983;50.744;7.086;2022-12-07T16:51:44;7.30;99.90
15765;DHT22;7983;50.744;7.086;2022-12-07T16:54:14;7.40;99.90
15765;DHT22;7983;50.744;7.086;2022-12-07T16:56:55;7.50;99.90
15765;DHT22;7983;50.744;7.086;2022-12-07T16:59:21;7.30;99.90
15765;DHT22;7983;50.744;7.086;2022-12-07T17:01:49;7.30;99.90
15765;DHT22;7983;50.744;7.086;2022-12-07T17:04:15;7.20;99.90
15765;DHT22;7983;50.744;7.086;2022-12-07T17:06:43;7.20;99.90
15765;DHT22;7983;50.744;7.086;2022-12-07T17:09:12;7.10;99.90
15765;DHT22;7983;50.744;7.086;2022-12-07T17:11:37;7.10;99.90
15765;DHT22;7983;50.744;7.086;2022-12-07T17:14:03;7.00;99.90
15765;DHT22;7983;50.744;7.086;2022-12-07T17:16:47;7.10;99.90
15765;DHT22;7983;50.744;7.086;2022-12-07T17:19:15;7.00;99.90
15765;DHT22;7983;50.744;7.086;2022-12-07T17:21:44;6.90;99.90
15765;DHT22;7983;50.744;7.086;2022-12-07T17:24:12;6.80;99.90
15765;DHT22;7983;50.744;7.086;2022-12-07T17:26:47;6.90;99.90
15765;DHT22;7983;50.744;7.086;2022-12-07T17:29:15;6.80;99.90
15765;DHT22;7983;50.744;7.086;2022-12-07T17:31:48;6.80;99.90
15765;DHT22;7983;50.744;7.086;2022-12-07T17:40:58;6.70;99.90
15765;DHT22;7983;50.744;7.086;2022-12-07T17:43:24;6.70;99.90
15765;DHT22;7983;50.744;7.086;2022-12-07T17:45:49;6.70;99.90
15765;DHT22;7983;50.744;7.086;2022-12-07T17:48:15;6.70;99.90
15765;DHT22;7983;50.744;7.086;2022-12-07T17:50:47;7.00;99.90
15765;DHT22;7983;50.744;7.086;2022-12-07T17:53:49;7.20;99.90
15765;DHT22;7983;50.744;7.086;2022-12-07T17:56:17;6.70;99.90
15765;DHT22;7983;50.744;7.086;2022-12-07T17:58:46;6.70;99.90
15765;DHT22;7983;50.744;7.086;2022-12-07T18:01:14;6.70;99.90
15765;DHT22;7983;50.744;7.086;2022-12-07T18:03:42;6.70;99.90
15765;DHT22;7983;50.744;7.086;2022-12-07T18:06:07;6.70;99.90
15765;DHT22;7983;50.744;7.086;2022-12-07T18:19:02;6.70;99.90
15765;DHT22;7983;50.744;7.086;2022-12-07T18:21:41;7.10;99.90
15765;DHT22;7983;50.744;7.086;2022-12-07T18:31:02;6.50;99.90
15765;DHT22;7983;50.744;7.086;2022-12-07T18:40:22;6.60;99.90
15765;DHT22;7983;50.744;7.086;2022-12-07T19:02:43;6.30;99.90
15765;DHT22;7983;50.744;7.086;2022-12-07T19:05:26;6.40;99.90
15765;DHT22;7983;50.744;7.086;2022-12-07T19:07:53;6.50;99.90
15765;DHT22;7983;50.744;7.086;2022-12-07T19:10:23;6.40;99.90
15765;DHT22;7983;50.744;7.086;2022-12-07T19:12:49;6.40;99.90
15765;DHT22;7983;50.744;7.086;2022-12-07T19:15:15;6.40;99.90
15765;DHT22;7983;50.744;7.086;2022-12-07T19:20:37;6.40;99.90
15765;DHT22;7983;50.744;7.086;2022-12-07T19:23:41;6.40;99.90
15765;DHT22;7983;50.744;7.086;2022-12-07T19:26:08;6.40;99.90
15765;DHT22;7983;50.744;7.086;2022-12-07T19:28:34;6.40;99.90
15765;DHT22;7983;50.744;7.086;2022-12-07T19:31:06;6.40;99.90
15765;DHT22;7983;50.744;7.086;2022-12-07T19:33:32;6.40;99.90
15765;DHT22;7983;50.744;7.086;2022-12-07T19:35:57;6.30;99.90
15765;DHT22;7983;50.744;7.086;2022-12-07T19:38:23;6.40;99.90
15765;DHT22;7983;50.744;7.086;2022-12-07T19:40:51;6.30;99.90
15765;DHT22;7983;50.744;7.086;2022-12-07T19:43:17;6.50;99.90
15765;DHT22;7983;50.744;7.086;2022-12-07T19:45:42;6.40;99.90
15765;DHT22;7983;50.744;7.086;2022-12-07T19:48:08;6.30;99.90
15765;DHT22;7983;50.744;7.086;2022-12-07T19:50:36;6.30;99.90
15765;DHT22;7983;50.744;7.086;2022-12-07T19:53:02;6.30;99.90
15765;DHT22;7983;50.744;7.086;2022-12-07T19:55:32;6.30;99.90
15765;DHT22;7983;50.744;7.086;2022-12-07T19:58:03;6.30;99.90